createdAt,value
2023-02-20T00:01:05.352Z,0.73
2023-02-20T00:03:32.308Z,0.40
2023-02-20T00:05:59.186Z,0.80
2023-02-20T00:08:26.184Z,0.70
2023-02-20T00:10:54.102Z,0.60
2023-02-20T00:13:21.066Z,0.60
2023-02-20T00:15:48.346Z,0.40
2023-02-20T00:18:15.425Z,0.70
2023-02-20T00:20:42.736Z,0.60
2023-02-20T00:23:09.942Z,0.93
2023-02-20T00:25:37.006Z,0.53
2023-02-20T00:28:04.436Z,0.50
2023-02-20T00:30:31.483Z,0.62
2023-02-20T00:32:59.043Z,0.60
2023-02-20T00:35:28.833Z,0.50
2023-02-20T00:37:56.036Z,0.40
2023-02-20T00:40:25.306Z,0.70
2023-02-20T00:42:52.942Z,0.40
2023-02-20T00:45:20.184Z,0.40
2023-02-20T00:47:47.554Z,0.50
2023-02-20T00:50:16.910Z,0.50
2023-02-20T00:52:43.909Z,0.60
2023-02-20T00:55:10.840Z,0.75
2023-02-20T00:57:37.753Z,0.50
2023-02-20T01:00:08.396Z,0.80
2023-02-20T01:02:36.437Z,0.80
2023-02-20T01:05:04.171Z,1.50
2023-02-20T01:07:31.381Z,1.08
2023-02-20T01:09:59.848Z,0.82
2023-02-20T01:12:27.823Z,0.70
2023-02-20T01:14:54.739Z,0.40
2023-02-20T01:17:22.050Z,0.60
2023-02-20T01:19:49.073Z,1.08
2023-02-20T01:22:16.127Z,0.60
2023-02-20T01:24:43.623Z,0.57
2023-02-20T01:27:10.631Z,1.00
2023-02-20T01:29:38.719Z,0.80
2023-02-20T01:32:06.158Z,1.08
2023-02-20T01:34:33.006Z,0.90
2023-02-20T01:37:02.941Z,0.50
2023-02-20T01:39:31.249Z,0.83
2023-02-20T01:42:01.792Z,0.70
2023-02-20T01:44:35.679Z,2.40
2023-02-20T01:47:12.863Z,0.70
2023-02-20T01:49:48.704Z,1.00
2023-02-20T01:52:31.982Z,0.70
2023-02-20T01:55:04.842Z,0.57
2023-02-20T01:57:34.076Z,0.60
2023-02-20T02:00:10.196Z,0.80
2023-02-20T02:02:45.774Z,0.80
2023-02-20T02:05:13.801Z,0.57
2023-02-20T02:07:41.517Z,0.95
2023-02-20T02:10:12.869Z,0.95
2023-02-20T02:12:40.595Z,1.00
2023-02-20T02:15:25.869Z,1.90
2023-02-20T02:18:03.721Z,0.70
2023-02-20T02:20:42.459Z,0.88
2023-02-20T02:23:41.074Z,0.85
2023-02-20T02:26:48.938Z,1.12
2023-02-20T02:29:42.620Z,1.37
2023-02-20T02:32:50.218Z,0.80
2023-02-20T02:35:28.992Z,0.65
2023-02-20T02:38:27.484Z,0.98
2023-02-20T02:41:20.317Z,1.12
2023-02-20T02:44:00.474Z,1.20
2023-02-20T02:46:43.105Z,1.10
2023-02-20T02:49:20.556Z,1.20
2023-02-20T02:51:50.339Z,0.70
2023-02-20T02:54:26.342Z,0.88
2023-02-20T02:57:13.967Z,0.50
2023-02-20T02:59:42.763Z,0.70
2023-02-20T03:02:15.130Z,1.10
2023-02-20T03:04:45.839Z,1.00
2023-02-20T03:07:16.608Z,1.00
2023-02-20T03:09:51.441Z,0.77
2023-02-20T03:12:20.296Z,0.77
2023-02-20T03:15:17.423Z,0.85
2023-02-20T03:18:15.216Z,1.02
2023-02-20T03:20:49.015Z,1.10
2023-02-20T03:23:33.364Z,2.55
2023-02-20T03:26:05.319Z,1.83
2023-02-20T03:28:36.716Z,4.40
2023-02-20T03:31:07.269Z,1.60
2023-02-20T03:33:56.066Z,1.75
2023-02-20T03:36:47.344Z,1.58
2023-02-20T03:39:39.694Z,1.40
2023-02-20T03:42:28.538Z,1.02
2023-02-20T03:44:57.535Z,1.25
2023-02-20T03:47:27.170Z,1.20
2023-02-20T03:49:56.615Z,1.30
2023-02-20T03:52:23.965Z,1.07
2023-02-20T03:54:51.527Z,1.10
2023-02-20T03:57:20.580Z,1.10
2023-02-20T04:00:00.888Z,0.80
2023-02-20T04:02:43.249Z,1.08
2023-02-20T04:05:14.826Z,1.30
2023-02-20T04:07:58.970Z,1.00
2023-02-20T04:10:34.913Z,1.30
2023-02-20T04:13:04.063Z,1.37
2023-02-20T04:15:31.688Z,2.42
2023-02-20T04:18:04.344Z,1.30
2023-02-20T04:20:31.614Z,1.50
2023-02-20T04:23:05.424Z,0.98
2023-02-20T04:25:45.146Z,0.80
2023-02-20T04:28:13.311Z,1.10
2023-02-20T04:30:40.761Z,1.10
2023-02-20T04:33:11.724Z,1.02
2023-02-20T04:35:38.606Z,1.10
2023-02-20T04:38:06.302Z,0.95
2023-02-20T04:40:33.575Z,0.95
2023-02-20T04:43:00.553Z,0.93
2023-02-20T04:45:27.612Z,1.15
2023-02-20T04:47:54.658Z,1.90
2023-02-20T04:50:31.351Z,1.62
2023-02-20T04:52:59.532Z,1.33
2023-02-20T04:55:27.831Z,1.27
2023-02-20T04:57:56.290Z,1.35
2023-02-20T05:00:24.558Z,1.45
2023-02-20T05:02:51.920Z,1.40
2023-02-20T05:05:24.987Z,1.20
2023-02-20T05:08:00.962Z,1.40
2023-02-20T05:10:29.755Z,1.10
2023-02-20T05:12:57.826Z,1.02
2023-02-20T05:15:26.170Z,1.30
2023-02-20T05:17:53.107Z,1.20
2023-02-20T05:20:20.672Z,1.57
2023-02-20T05:22:48.515Z,1.42
2023-02-20T05:25:15.957Z,2.33
2023-02-20T05:27:43.053Z,1.98
2023-02-20T05:30:18.883Z,2.28
2023-02-20T05:32:45.816Z,2.90
2023-02-20T05:35:12.669Z,1.60
2023-02-20T05:37:39.656Z,2.40
2023-02-20T05:40:07.224Z,3.55
2023-02-20T05:42:35.583Z,2.75
2023-02-20T05:45:04.538Z,1.97
2023-02-20T05:47:31.719Z,1.50
2023-02-20T05:49:58.805Z,1.60
2023-02-20T05:52:25.896Z,1.50
2023-02-20T05:54:52.826Z,1.60
2023-02-20T05:57:19.748Z,2.00
2023-02-20T05:59:46.850Z,4.20
2023-02-20T06:02:14.080Z,11.70
2023-02-20T06:04:41.114Z,7.62
2023-02-20T06:07:10.390Z,4.65
2023-02-20T06:09:37.653Z,3.17
2023-02-20T06:12:05.045Z,2.62
2023-02-20T06:14:31.920Z,4.07
2023-02-20T06:16:58.878Z,2.87
2023-02-20T06:19:26.156Z,4.70
2023-02-20T06:21:54.186Z,2.43
2023-02-20T06:24:21.943Z,2.35
2023-02-20T06:26:49.251Z,2.85
2023-02-20T06:29:17.440Z,2.28
2023-02-20T06:31:44.767Z,3.15
2023-02-20T06:34:12.578Z,2.13
2023-02-20T06:36:41.916Z,1.40
2023-02-20T06:39:11.731Z,1.90
2023-02-20T06:41:38.778Z,2.20
2023-02-20T06:44:08.804Z,1.92
2023-02-20T06:46:35.828Z,2.27
2023-02-20T06:49:02.844Z,1.90
2023-02-20T06:51:32.257Z,1.95
2023-02-20T06:54:00.300Z,2.30
2023-02-20T06:56:32.811Z,2.08
2023-02-20T06:59:00.936Z,2.13
2023-02-20T07:01:31.244Z,1.92
2023-02-20T07:04:00.513Z,2.70
2023-02-20T07:06:28.660Z,1.90
2023-02-20T07:08:56.233Z,2.00
2023-02-20T07:11:24.136Z,2.80
2023-02-20T07:13:51.493Z,2.40
2023-02-20T07:16:18.512Z,2.35
2023-02-20T07:18:45.723Z,2.62
2023-02-20T07:21:12.593Z,2.20
2023-02-20T07:23:39.738Z,2.30
2023-02-20T07:26:06.937Z,2.03
2023-02-20T07:28:37.294Z,2.08
2023-02-20T07:31:04.926Z,2.05
2023-02-20T07:33:31.806Z,2.20
2023-02-20T07:35:59.088Z,2.13
2023-02-20T07:38:26.323Z,2.00
2023-02-20T07:40:53.411Z,1.65
2023-02-20T07:43:20.397Z,2.35
2023-02-20T07:45:48.076Z,2.22
2023-02-20T07:48:15.395Z,2.57
2023-02-20T07:50:42.833Z,2.40
2023-02-20T07:53:14.976Z,0.90
2023-02-20T07:55:41.942Z,1.10
2023-02-20T07:58:09.724Z,0.98
2023-02-20T08:00:38.145Z,0.70
2023-02-20T08:03:05.255Z,1.02
2023-02-20T08:05:40.104Z,1.10
2023-02-20T08:08:10.854Z,0.60
2023-02-20T08:10:39.098Z,0.90
2023-02-20T08:13:06.159Z,0.50
2023-02-20T08:15:33.095Z,0.60
2023-02-20T08:18:00.145Z,0.95
2023-02-20T08:20:27.255Z,0.80
2023-02-20T08:22:54.522Z,0.73
2023-02-20T08:25:21.436Z,0.63
2023-02-20T08:27:49.449Z,1.05
2023-02-20T08:30:24.273Z,0.62
2023-02-20T08:32:52.459Z,1.10
2023-02-20T08:35:20.033Z,0.77
2023-02-20T08:37:47.364Z,0.70
2023-02-20T08:40:14.498Z,0.85
2023-02-20T08:42:41.503Z,0.82
2023-02-20T08:45:09.709Z,0.73
2023-02-20T08:47:36.831Z,0.68
2023-02-20T08:50:05.756Z,0.70
2023-02-20T08:52:32.683Z,0.65
2023-02-20T08:54:59.614Z,1.10
2023-02-20T08:57:26.602Z,0.52
2023-02-20T08:59:53.500Z,0.68
2023-02-20T09:02:29.118Z,0.60
2023-02-20T09:04:56.928Z,0.77
2023-02-20T09:07:24.950Z,0.70
2023-02-20T09:09:52.193Z,0.60
2023-02-20T09:12:19.488Z,0.60
2023-02-20T09:14:46.949Z,0.80
2023-02-20T09:17:13.902Z,0.73
2023-02-20T09:19:40.894Z,0.80
2023-02-20T09:22:07.842Z,0.75
2023-02-20T09:24:35.655Z,0.60
2023-02-20T09:27:05.063Z,0.90
2023-02-20T09:29:33.237Z,1.37
2023-02-20T09:32:00.403Z,1.15
2023-02-20T09:34:27.402Z,0.60
2023-02-20T09:36:55.539Z,0.95
2023-02-20T09:39:22.666Z,0.60
2023-02-20T09:41:55.447Z,0.82
2023-02-20T09:44:46.656Z,0.68
2023-02-20T09:47:31.524Z,1.08
2023-02-20T09:50:06.747Z,0.90
2023-02-20T09:52:40.094Z,0.80
2023-02-20T09:55:13.960Z,0.60
2023-02-20T09:57:42.801Z,1.23
2023-02-20T10:00:29.192Z,0.77
2023-02-20T10:03:02.171Z,0.80
2023-02-20T10:05:29.976Z,0.70
2023-02-20T10:07:56.836Z,1.10
2023-02-20T10:10:28.584Z,0.98
2023-02-20T10:13:16.001Z,0.90
2023-02-20T10:15:54.268Z,1.00
2023-02-20T10:18:58.623Z,1.10
2023-02-20T10:21:31.513Z,1.10
2023-02-20T10:24:46.885Z,1.42
2023-02-20T10:27:44.766Z,1.30
2023-02-20T10:30:20.667Z,1.30
2023-02-20T10:33:04.419Z,1.40
2023-02-20T10:35:39.454Z,1.73
2023-02-20T10:38:11.326Z,1.60
2023-02-20T10:40:43.814Z,1.45
2023-02-20T10:43:15.168Z,1.50
2023-02-20T10:45:44.536Z,1.30
2023-02-20T10:48:15.895Z,1.42
2023-02-20T10:51:09.059Z,1.80
2023-02-20T10:53:57.709Z,1.50
2023-02-20T10:56:37.806Z,1.50
2023-02-20T10:59:21.892Z,1.60
2023-02-20T11:01:52.757Z,1.30
2023-02-20T11:04:29.054Z,1.70
2023-02-20T11:07:03.366Z,1.67
2023-02-20T11:09:30.601Z,1.60
2023-02-20T11:11:57.966Z,1.50
2023-02-20T11:14:40.389Z,1.50
2023-02-20T11:17:14.289Z,1.60
2023-02-20T11:19:56.689Z,1.75
2023-02-20T11:22:42.296Z,1.55
2023-02-20T11:25:18.244Z,1.73
2023-02-20T11:27:51.508Z,1.55
2023-02-20T11:30:28.240Z,1.55
2023-02-20T11:33:15.075Z,1.60
2023-02-20T11:35:44.869Z,2.10
2023-02-20T11:38:23.977Z,1.90
2023-02-20T11:40:53.902Z,1.80
2023-02-20T11:44:00.222Z,2.00
2023-02-20T11:46:28.094Z,3.67
2023-02-20T11:49:07.069Z,2.35
2023-02-20T11:51:43.342Z,4.33
2023-02-20T11:54:13.892Z,5.07
2023-02-20T11:57:16.285Z,1.80
2023-02-20T11:59:48.744Z,1.60
2023-02-20T12:02:15.629Z,1.30
2023-02-20T12:05:13.336Z,1.20
2023-02-20T12:07:57.654Z,1.55
2023-02-20T12:10:35.815Z,1.50
2023-02-20T12:13:04.042Z,1.40
2023-02-20T12:15:30.888Z,1.50
2023-02-20T12:18:28.628Z,1.40
2023-02-20T12:21:07.552Z,1.77
2023-02-20T12:23:46.594Z,1.20
2023-02-20T12:26:30.553Z,3.20
2023-02-20T12:29:06.708Z,1.95
2023-02-20T12:31:43.017Z,2.43
2023-02-20T12:34:28.065Z,1.60
2023-02-20T12:37:06.332Z,1.42
2023-02-20T12:39:47.202Z,1.45
2023-02-20T12:42:37.611Z,1.30
2023-02-20T12:45:34.326Z,1.10
2023-02-20T12:48:15.915Z,2.28
2023-02-20T12:51:34.129Z,1.20
2023-02-20T12:54:34.836Z,1.30
2023-02-20T12:57:15.961Z,1.98
2023-02-20T13:00:07.283Z,1.90
2023-02-20T13:02:42.571Z,1.80
2023-02-20T13:05:16.641Z,1.37
2023-02-20T13:07:56.347Z,1.40
2023-02-20T13:10:32.957Z,1.70
2023-02-20T13:13:00.418Z,1.53
2023-02-20T13:15:40.829Z,1.80
2023-02-20T13:18:36.108Z,1.60
2023-02-20T13:23:02.585Z,1.90
2023-02-20T13:25:42.587Z,1.87
2023-02-20T13:28:13.252Z,2.33
2023-02-20T13:30:41.100Z,1.90
2023-02-20T13:33:22.647Z,1.98
2023-02-20T13:35:54.545Z,3.17
2023-02-20T13:38:24.057Z,1.75
2023-02-20T13:40:57.270Z,1.83
2023-02-20T13:43:27.208Z,1.40
2023-02-20T13:46:17.605Z,1.62
2023-02-20T13:48:50.630Z,1.70
2023-02-20T13:51:25.302Z,1.70
2023-02-20T13:54:18.836Z,1.70
2023-02-20T13:56:59.720Z,1.50
2023-02-20T13:59:28.358Z,1.65
2023-02-20T14:02:02.714Z,1.90
2023-02-20T14:04:30.572Z,1.70
2023-02-20T14:06:59.078Z,1.50
2023-02-20T14:09:31.630Z,1.40
2023-02-20T14:12:13.225Z,1.60
2023-02-20T14:14:45.987Z,1.52
2023-02-20T14:17:13.018Z,1.30
2023-02-20T14:19:44.091Z,1.47
2023-02-20T14:22:30.885Z,1.50
2023-02-20T14:25:03.513Z,1.80
2023-02-20T14:27:33.333Z,1.35
2023-02-20T14:30:08.243Z,1.55
2023-02-20T14:32:43.640Z,1.13
2023-02-20T14:35:28.389Z,1.25
2023-02-20T14:38:20.165Z,1.33
2023-02-20T14:40:47.558Z,1.30
2023-02-20T14:43:21.230Z,1.35
2023-02-20T14:46:00.999Z,1.60
2023-02-20T14:48:33.759Z,1.30
2023-02-20T14:51:12.519Z,1.50
2023-02-20T14:53:40.052Z,1.50
2023-02-20T14:56:15.273Z,1.83
2023-02-20T14:58:45.120Z,1.43
2023-02-20T15:01:17.822Z,2.25
2023-02-20T15:04:05.435Z,1.25
2023-02-20T15:06:35.591Z,2.40
2023-02-20T15:09:19.842Z,3.20
2023-02-20T15:11:51.334Z,2.60
2023-02-20T15:14:32.503Z,1.50
2023-02-20T15:17:20.775Z,1.67
2023-02-20T15:19:50.291Z,1.73
2023-02-20T15:22:37.089Z,1.67
2023-02-20T15:25:25.388Z,1.90
2023-02-20T15:28:07.935Z,2.12
2023-02-20T15:30:36.006Z,1.90
2023-02-20T15:33:03.478Z,2.20
2023-02-20T15:35:36.733Z,1.50
2023-02-20T15:38:08.356Z,1.70
2023-02-20T15:40:36.439Z,1.30
2023-02-20T15:43:24.035Z,1.80
2023-02-20T15:45:58.594Z,1.80
2023-02-20T15:48:26.232Z,1.30
2023-02-20T15:50:53.810Z,1.63
2023-02-20T15:53:27.417Z,1.33
2023-02-20T15:55:56.503Z,1.50
2023-02-20T15:58:33.515Z,1.40
2023-02-20T16:01:02.489Z,1.98
2023-02-20T16:03:33.857Z,1.67
2023-02-20T16:06:06.401Z,1.70
2023-02-20T16:08:33.552Z,1.70
2023-02-20T16:11:00.622Z,1.67
2023-02-20T16:13:35.944Z,2.60
2023-02-20T16:16:23.888Z,3.03
2023-02-20T16:18:54.985Z,3.75
2023-02-20T16:21:28.230Z,2.12
2023-02-20T16:23:55.635Z,2.08
2023-02-20T16:26:29.016Z,2.12
2023-02-20T16:29:01.947Z,4.13
2023-02-20T16:31:54.093Z,24.65
2023-02-20T16:34:25.523Z,4.82
2023-02-20T16:36:53.600Z,5.55
2023-02-20T16:39:26.842Z,5.87
2023-02-20T16:41:59.229Z,3.60
2023-02-20T16:44:43.271Z,2.47
2023-02-20T16:47:12.993Z,3.47
2023-02-20T16:49:40.553Z,3.42
2023-02-20T16:52:37.897Z,3.58
2023-02-20T16:55:09.794Z,3.60
2023-02-20T16:57:38.069Z,4.10
2023-02-20T17:00:09.164Z,4.10
2023-02-20T17:02:40.375Z,4.57
2023-02-20T17:05:07.977Z,4.10
2023-02-20T17:07:35.717Z,4.10
2023-02-20T17:10:05.348Z,4.30
2023-02-20T17:12:34.365Z,4.70
2023-02-20T17:15:02.825Z,4.72
2023-02-20T17:17:33.416Z,5.50
2023-02-20T17:20:02.916Z,5.20
2023-02-20T17:22:30.674Z,3.85
2023-02-20T17:24:58.809Z,3.58
2023-02-20T17:27:26.701Z,3.05
2023-02-20T17:30:00.372Z,3.28
2023-02-20T17:32:28.863Z,3.23
2023-02-20T17:35:05.553Z,2.70
2023-02-20T17:37:34.853Z,3.80
2023-02-20T17:40:05.915Z,2.90
2023-02-20T17:42:34.904Z,3.33
2023-02-20T17:45:03.339Z,3.47
2023-02-20T17:47:35.035Z,2.65
2023-02-20T17:50:05.000Z,2.40
2023-02-20T17:52:33.472Z,2.50
2023-02-20T17:55:02.754Z,2.72
2023-02-20T17:57:37.344Z,3.13
2023-02-20T18:00:08.106Z,3.50
2023-02-20T18:02:36.673Z,3.10
2023-02-20T18:05:05.143Z,3.28
2023-02-20T18:07:33.575Z,2.95
2023-02-20T18:10:06.683Z,2.87
2023-02-20T18:12:35.043Z,2.92
2023-02-20T18:15:07.695Z,2.90
2023-02-20T18:17:38.611Z,2.60
2023-02-20T18:20:12.715Z,2.67
2023-02-20T18:22:43.409Z,2.73
2023-02-20T18:25:11.827Z,2.87
2023-02-20T18:27:40.336Z,2.80
2023-02-20T18:30:09.913Z,8.40
2023-02-20T18:32:40.156Z,6.40
2023-02-20T18:35:09.572Z,5.17
2023-02-20T18:37:37.478Z,3.47
2023-02-20T18:40:09.004Z,3.72
2023-02-20T18:42:39.466Z,4.90
2023-02-20T18:45:09.278Z,6.32
2023-02-20T18:47:37.696Z,3.30
2023-02-20T18:50:10.769Z,3.10
2023-02-20T18:52:40.033Z,4.72
2023-02-20T18:55:10.560Z,3.83
2023-02-20T18:57:41.140Z,3.25
2023-02-20T19:00:10.702Z,3.00
2023-02-20T19:02:43.646Z,2.70
2023-02-20T19:05:16.928Z,2.90
2023-02-20T19:07:49.478Z,2.83
2023-02-20T19:10:23.515Z,2.70
2023-02-20T19:12:56.502Z,2.90
2023-02-20T19:15:32.675Z,2.72
2023-02-20T19:18:03.471Z,2.65
2023-02-20T19:20:32.801Z,2.90
2023-02-20T19:23:02.962Z,2.60
2023-02-20T19:25:32.743Z,2.93
2023-02-20T19:28:03.524Z,2.90
2023-02-20T19:30:33.429Z,2.85
2023-02-20T19:33:06.648Z,2.83
2023-02-20T19:35:35.890Z,3.28
2023-02-20T19:38:04.841Z,3.10
2023-02-20T19:40:36.099Z,2.70
2023-02-20T19:43:05.150Z,2.95
2023-02-20T19:45:36.246Z,2.90
2023-02-20T19:48:07.417Z,2.45
2023-02-20T19:50:41.358Z,2.70
2023-02-20T19:53:09.666Z,2.58
2023-02-20T19:55:39.787Z,2.97
2023-02-20T19:58:09.346Z,4.03
2023-02-20T20:00:37.711Z,3.50
2023-02-20T20:03:06.940Z,3.50
2023-02-20T20:05:41.334Z,2.92
2023-02-20T20:08:23.305Z,3.72
2023-02-20T20:10:51.613Z,3.33
2023-02-20T20:13:20.245Z,3.53
2023-02-20T20:15:49.781Z,3.40
2023-02-20T20:18:18.487Z,3.05
2023-02-20T20:20:47.660Z,3.90
2023-02-20T20:23:16.656Z,3.17
2023-02-20T20:25:45.708Z,3.12
2023-02-20T20:28:14.333Z,3.10
2023-02-20T20:30:44.135Z,2.87
2023-02-20T20:33:13.568Z,3.20
2023-02-20T20:35:41.564Z,3.70
2023-02-20T20:38:12.104Z,3.28
2023-02-20T20:40:40.298Z,3.80
2023-02-20T20:43:10.675Z,3.30
2023-02-20T20:45:39.249Z,4.47
2023-02-20T20:48:08.623Z,5.57
2023-02-20T20:50:37.358Z,7.03
2023-02-20T20:53:05.326Z,4.27
2023-02-20T20:55:34.604Z,3.50
2023-02-20T20:58:03.268Z,3.60
2023-02-20T21:00:33.189Z,3.87
2023-02-20T21:03:02.225Z,3.40
2023-02-20T21:05:32.532Z,3.23
2023-02-20T21:08:04.154Z,3.10
2023-02-20T21:10:32.445Z,3.60
2023-02-20T21:13:01.102Z,3.25
2023-02-20T21:15:30.816Z,3.33
2023-02-20T21:17:58.585Z,3.20
2023-02-20T21:20:29.528Z,3.62
2023-02-20T21:23:01.474Z,3.67
2023-02-20T21:25:30.307Z,3.42
2023-02-20T21:28:02.630Z,3.62
2023-02-20T21:30:30.024Z,4.03
2023-02-20T21:32:57.308Z,4.22
2023-02-20T21:35:26.188Z,3.87
2023-02-20T21:37:55.704Z,3.67
2023-02-20T21:40:23.004Z,3.60
2023-02-20T21:43:14.859Z,3.87
2023-02-20T21:45:44.346Z,3.65
2023-02-20T21:48:15.189Z,4.32
2023-02-20T21:50:42.438Z,4.07
2023-02-20T21:53:09.457Z,3.87
2023-02-20T21:55:36.638Z,3.90
2023-02-20T21:58:04.093Z,3.97
2023-02-20T22:00:31.972Z,3.90
2023-02-20T22:02:59.034Z,4.25
2023-02-20T22:05:27.077Z,3.78
2023-02-20T22:08:12.697Z,4.17
2023-02-20T22:10:58.344Z,3.87
2023-02-20T22:13:44.912Z,3.80
2023-02-20T22:16:35.361Z,3.70
2023-02-20T22:19:20.989Z,4.72
2023-02-20T22:22:06.939Z,3.40
2023-02-20T22:24:55.470Z,4.03
2023-02-20T22:27:41.412Z,3.55
2023-02-20T22:30:30.822Z,3.53
2023-02-20T22:33:16.574Z,3.37
2023-02-20T22:36:01.794Z,3.63
2023-02-20T22:38:47.052Z,3.55
2023-02-20T22:41:38.591Z,3.75
2023-02-20T22:44:24.328Z,3.40
2023-02-20T22:47:09.938Z,3.42
2023-02-20T22:49:55.580Z,3.90
2023-02-20T22:52:41.375Z,3.97
2023-02-20T22:55:26.925Z,3.60
2023-02-20T22:58:12.653Z,3.60
2023-02-20T23:00:58.497Z,3.05
2023-02-20T23:03:44.102Z,3.70
2023-02-20T23:06:33.305Z,1.75
2023-02-20T23:09:18.968Z,2.10
2023-02-20T23:12:07.838Z,2.40
2023-02-20T23:14:53.592Z,1.98
2023-02-20T23:17:42.677Z,1.00
2023-02-20T23:20:35.393Z,0.82
2023-02-20T23:23:21.702Z,1.33
2023-02-20T23:26:07.407Z,1.83
2023-02-20T23:28:53.766Z,1.83
2023-02-20T23:31:50.906Z,2.23
2023-02-20T23:34:36.863Z,2.50
2023-02-20T23:37:22.473Z,2.80
2023-02-20T23:40:10.473Z,2.22
2023-02-20T23:42:56.998Z,3.50
2023-02-20T23:45:43.290Z,3.63
2023-02-20T23:48:29.329Z,3.00
2023-02-20T23:51:15.819Z,3.15
2023-02-20T23:54:01.876Z,2.80
2023-02-20T23:56:47.346Z,1.85
2023-02-20T23:59:33.158Z,0.87
